CheckWX is a tool to help pilots better visualize weather data.  It is not intended as a substitute for an official pre-flight weather briefing.

02:04:16 UTC

KGYY TAF
Gary / Chicago International Airport
Gary, Indiana, USA
KGYY 122330Z 1300/1324 19014G20KT P6SM BKN070 OVC200 WS020/22045KT FM130300 20010KT P6SM OVC050 FM130800 21005KT P6SM BKN035

Dec-13@
00:00 UTC

Dec-13 @ 00:00 UTC

Dec-13@
03:00 UTC

Dec-13 @ 03:00 UTC

KGYY 122330Z 1300/1324 19014G20KT P6SM BKN070 OVC200 WS020/22045KT
Wind
  • 190° at 14 KTS
  • {Gusting to 20 KTS
Cloud Levels
  • Broken at 7,000' AGL
  • Overcast at 20,000' AGL

Dec-13@
03:00 UTC

Dec-13 @ 03:00 UTC

Dec-13@
08:00 UTC

Dec-13 @ 08:00 UTC

FM130300 20010KT P6SM OVC050

From

From Standard forecast or significant change

Wind
  • 200° at 10 KTS
Cloud Levels
  • Overcast at 5,000' AGL

Dec-13@
08:00 UTC

Dec-13 @ 08:00 UTC

Dec-14@
00:00 UTC

Dec-14 @ 00:00 UTC

FM130800 21005KT P6SM BKN035

From

From Standard forecast or significant change

Wind
  • 210° at 5 KTS
Cloud Levels
  • Broken at 3,500' AGL